Fort Recovery, Ohio
Current Conditions -  °F | °C
As of 10:55 PM on Thursday 27 Nov 2014 (Local Time) from KVES Reporting Station
Overcast Overcast  
Wind Chill: 16°   Ceiling: 1800
Heat Index: 27°   Visibility: 10mi
Dew Point: 23°   Wind: 12mph
Humidity: 86%   Direction: 280°W
Pressure: 30.35"   Gusts: NA
Location:  40.41°N, 84.78°W
Report Text: KVES 280355Z AUTO 28010KT 10SM BKN018 BKN030 OVC050 M03/M05 A3035 RMK AO2
Loading
Personal Weather Stations






























Interactive Weather Map New forecast layout! Learn more

10-Day Weather Forecast

Advertisements
Track Severe Weather on mobile